Time;durP1;ratioP1;P1;durP2;ratioP2;P2;SDS_P1;SDS_P2;PMS_P1;PMS_P2;Temp;Humidity;BMP_temperature;BMP_pressure;BME280_temperature;BME280_humidity;BME280_pressure;Samples;Min_cycle;Max_cycle;Signal;HPM_P1;HPM_P2
2023/12/22 00:00:29;;;;;;;0.63;0.63;;;7.10;99.90;;;;;;5070697;28;20643;-29
2023/12/22 00:02:55;;;;;;;1.15;0.82;;;6.80;99.90;;;;;;5066955;28;20388;-31
2023/12/22 00:05:21;;;;;;;0.80;0.77;;;6.60;99.90;;;;;;5063241;28;20028;-29
2023/12/22 00:07:46;;;;;;;1.20;0.80;;;6.50;99.90;;;;;;5067614;28;20502;-31
2023/12/22 00:10:12;;;;;;;0.98;0.75;;;6.50;99.90;;;;;;5067463;28;20028;-31
2023/12/22 00:12:38;;;;;;;0.82;0.82;;;6.40;99.90;;;;;;5069441;28;20017;-29
2023/12/22 00:15:05;;;;;;;0.90;0.90;;;6.30;99.90;;;;;;5068581;28;20029;-28
2023/12/22 00:17:31;;;;;;;0.73;0.73;;;6.20;99.90;;;;;;5064755;28;20028;-30
2023/12/22 00:19:58;;;;;;;0.70;0.70;;;6.10;99.90;;;;;;5064522;28;20040;-31
2023/12/22 00:22:27;;;;;;;0.50;0.50;;;6.00;99.90;;;;;;5065688;28;20083;-33
2023/12/22 00:24:53;;;;;;;0.50;0.50;;;5.90;99.90;;;;;;5061577;28;20111;-33
2023/12/22 00:27:19;;;;;;;0.50;0.50;;;5.70;99.90;;;;;;5068909;28;20116;-30
2023/12/22 00:29:44;;;;;;;0.50;0.50;;;5.70;99.90;;;;;;5067994;28;20368;-31
2023/12/22 00:32:10;;;;;;;0.50;0.50;;;5.70;99.90;;;;;;5063313;28;20029;-32
2023/12/22 00:34:36;;;;;;;0.60;0.60;;;5.60;99.90;;;;;;5070291;28;20056;-34
2023/12/22 00:37:04;;;;;;;0.60;0.60;;;5.60;99.90;;;;;;5080640;28;20116;-32
2023/12/22 00:39:30;;;;;;;0.60;0.60;;;5.50;99.90;;;;;;5078760;28;20384;-30
2023/12/22 00:41:56;;;;;;;0.50;0.50;;;5.50;99.90;;;;;;5066546;28;20043;-29
2023/12/22 00:44:29;;;;;;;0.63;0.60;;;5.40;99.90;;;;;;5065921;28;20031;-29
2023/12/22 00:46:58;;;;;;;0.63;0.63;;;5.40;99.90;;;;;;5065247;28;20021;-30
2023/12/22 00:49:23;;;;;;;0.60;0.60;;;5.30;99.90;;;;;;5064224;28;20044;-33
2023/12/22 00:51:49;;;;;;;0.60;0.60;;;5.30;99.90;;;;;;5061364;28;20024;-31
2023/12/22 00:54:14;;;;;;;0.52;0.52;;;5.30;99.90;;;;;;5065178;28;20094;-35
2023/12/22 00:56:40;;;;;;;0.55;0.55;;;5.30;99.90;;;;;;5066723;28;20503;-32
2023/12/22 00:59:06;;;;;;;0.90;0.90;;;5.30;99.90;;;;;;5062214;28;20024;-30
2023/12/22 01:01:31;;;;;;;0.80;0.60;;;5.10;99.90;;;;;;5066471;28;20607;-32
2023/12/22 01:03:57;;;;;;;0.80;0.80;;;5.00;99.90;;;;;;5065248;28;20155;-32
2023/12/22 01:06:23;;;;;;;0.57;0.57;;;4.90;99.90;;;;;;5065491;28;20107;-32
2023/12/22 01:08:49;;;;;;;0.60;0.60;;;4.80;99.90;;;;;;5064821;28;20036;-32
2023/12/22 01:11:19;;;;;;;0.60;0.60;;;4.70;99.90;;;;;;5061941;28;20025;-34
2023/12/22 01:13:45;;;;;;;0.60;0.60;;;4.60;99.90;;;;;;5063229;28;20105;-34
2023/12/22 01:16:10;;;;;;;0.60;0.60;;;4.60;99.90;;;;;;5063396;28;20017;-34
2023/12/22 01:18:36;;;;;;;0.60;0.60;;;4.50;99.90;;;;;;5062885;28;20027;-35
2023/12/22 01:21:02;;;;;;;0.60;0.60;;;4.50;99.90;;;;;;5064693;28;20319;-34
2023/12/22 01:23:27;;;;;;;0.70;0.70;;;4.40;99.90;;;;;;5063330;28;20210;-33
2023/12/22 01:25:53;;;;;;;0.60;0.60;;;4.40;99.90;;;;;;5065083;28;20044;-34
2023/12/22 01:28:19;;;;;;;0.70;0.70;;;4.30;99.90;;;;;;5064257;28;20040;-37
2023/12/22 01:30:44;;;;;;;0.60;0.60;;;4.20;99.90;;;;;;5063432;28;20453;-33
2023/12/22 01:33:10;;;;;;;0.70;0.70;;;4.10;99.90;;;;;;5060621;28;20029;-34
2023/12/22 01:35:35;;;;;;;0.70;0.70;;;4.00;99.90;;;;;;5064289;28;20379;-33
2023/12/22 01:38:01;;;;;;;0.98;0.60;;;4.00;99.90;;;;;;5063470;28;20035;-33
2023/12/22 01:40:27;;;;;;;0.60;0.60;;;4.00;99.90;;;;;;5067160;28;20016;-34
2023/12/22 01:42:52;;;;;;;0.52;0.52;;;4.00;99.90;;;;;;5065641;28;20029;-33
2023/12/22 01:45:18;;;;;;;0.70;0.70;;;4.10;99.90;;;;;;5065002;28;20111;-32
2023/12/22 01:47:46;;;;;;;0.60;0.60;;;4.00;99.90;;;;;;5064133;28;20035;-33
2023/12/22 01:50:13;;;;;;;0.80;0.80;;;4.00;99.90;;;;;;5060886;28;20511;-31
2023/12/22 01:52:43;;;;;;;0.68;0.68;;;3.90;99.90;;;;;;5065703;28;20391;-32
2023/12/22 01:55:11;;;;;;;0.88;0.70;;;3.80;99.90;;;;;;5061305;28;20078;-33
2023/12/22 01:57:38;;;;;;;0.70;0.70;;;3.70;99.90;;;;;;5063745;28;20020;-34
2023/12/22 02:00:04;;;;;;;0.70;0.70;;;3.70;99.90;;;;;;5064620;28;20044;-32
2023/12/22 02:02:30;;;;;;;0.77;0.77;;;3.60;99.90;;;;;;5063014;28;20043;-32
2023/12/22 02:04:58;;;;;;;0.70;0.70;;;3.60;99.90;;;;;;5064308;28;20032;-34
2023/12/22 02:07:23;;;;;;;0.70;0.70;;;3.50;99.90;;;;;;5062620;28;20028;-33
2023/12/22 02:09:49;;;;;;;0.70;0.70;;;3.50;99.90;;;;;;5064296;28;20036;-32
2023/12/22 02:12:14;;;;;;;0.70;0.70;;;3.50;99.90;;;;;;5065606;28;20032;-33
2023/12/22 02:14:40;;;;;;;0.68;0.68;;;3.40;99.90;;;;;;5065525;28;20030;-37
2023/12/22 02:17:22;;;;;;;0.70;0.70;;;3.40;99.90;;;;;;5063601;28;20029;-33
2023/12/22 02:19:48;;;;;;;0.60;0.60;;;3.40;99.90;;;;;;5065577;28;20028;-34
2023/12/22 02:22:14;;;;;;;0.60;0.60;;;3.40;99.90;;;;;;5062283;28;20080;-34
2023/12/22 02:24:40;;;;;;;0.70;0.70;;;3.40;99.90;;;;;;5065838;28;20105;-33
2023/12/22 02:27:09;;;;;;;0.70;0.70;;;3.30;99.90;;;;;;5066384;28;20048;-34
2023/12/22 02:29:42;;;;;;;0.70;0.70;;;3.30;99.90;;;;;;5063595;28;20481;-33
2023/12/22 02:32:13;;;;;;;0.70;0.70;;;3.30;99.90;;;;;;5064958;28;20163;-33
2023/12/22 02:34:43;;;;;;;0.60;0.60;;;3.40;99.90;;;;;;5058760;28;20103;-32
2023/12/22 02:37:10;;;;;;;1.88;1.77;;;3.50;99.90;;;;;;5066556;28;20025;-35
2023/12/22 02:39:36;;;;;;;1.88;1.77;;;3.60;99.90;;;;;;5065086;28;20016;-34
2023/12/22 02:42:04;;;;;;;1.30;1.30;;;3.70;99.90;;;;;;5061197;28;20044;-33
2023/12/22 02:44:30;;;;;;;0.95;0.95;;;3.70;99.90;;;;;;5061353;28;20032;-34
2023/12/22 02:46:56;;;;;;;0.70;0.70;;;3.70;99.90;;;;;;5064282;28;20044;-37
2023/12/22 02:49:22;;;;;;;1.25;0.80;;;3.70;99.90;;;;;;5062799;28;20471;-34
2023/12/22 02:51:47;;;;;;;0.80;0.80;;;3.70;99.90;;;;;;5061206;28;20028;-31
2023/12/22 02:54:13;;;;;;;0.80;0.80;;;3.80;99.90;;;;;;5064721;28;20021;-34
2023/12/22 02:56:39;;;;;;;0.95;0.70;;;3.80;99.90;;;;;;5064408;28;20043;-32
2023/12/22 02:59:04;;;;;;;1.67;0.70;;;3.80;99.90;;;;;;5065815;28;20032;-34
2023/12/22 03:01:30;;;;;;;0.70;0.70;;;3.80;99.90;;;;;;5062543;28;20403;-32
2023/12/22 03:03:55;;;;;;;0.60;0.60;;;3.90;99.90;;;;;;5065586;28;20502;-34
2023/12/22 03:06:21;;;;;;;0.70;0.70;;;3.90;99.90;;;;;;5064598;28;20525;-33
2023/12/22 03:08:47;;;;;;;0.70;0.70;;;3.90;99.90;;;;;;5061748;28;20036;-33
2023/12/22 03:11:12;;;;;;;0.70;0.70;;;3.90;99.90;;;;;;5063528;28;20032;-34
2023/12/22 03:13:38;;;;;;;0.80;0.80;;;3.90;99.90;;;;;;5066340;28;20380;-31
2023/12/22 03:16:08;;;;;;;0.85;0.85;;;3.90;99.90;;;;;;5066430;28;20024;-31
2023/12/22 03:18:34;;;;;;;0.60;0.60;;;3.90;99.90;;;;;;5061866;28;20540;-32
2023/12/22 03:20:59;;;;;;;0.60;0.60;;;3.90;99.90;;;;;;5064953;28;20049;-32
2023/12/22 03:23:25;;;;;;;0.82;0.80;;;3.90;99.90;;;;;;5068136;28;20033;-33
2023/12/22 03:25:50;;;;;;;0.68;0.68;;;4.00;99.90;;;;;;5068483;28;20029;-34
2023/12/22 03:28:16;;;;;;;1.25;1.25;;;4.20;99.90;;;;;;5068689;28;20530;-34
2023/12/22 03:30:42;;;;;;;1.27;1.20;;;4.60;99.90;;;;;;5067536;28;20062;-32
2023/12/22 03:33:08;;;;;;;1.80;1.00;;;4.90;99.90;;;;;;5067702;28;20025;-34
2023/12/22 03:35:33;;;;;;;1.95;0.98;;;5.00;99.90;;;;;;5069641;28;20029;-32
2023/12/22 03:37:59;;;;;;;0.85;0.85;;;5.10;99.90;;;;;;5069063;28;20544;-30
2023/12/22 03:40:25;;;;;;;1.45;0.90;;;5.10;99.90;;;;;;5070140;28;20025;-30
2023/12/22 03:42:50;;;;;;;1.13;1.10;;;5.20;99.90;;;;;;5066609;28;20709;-30
2023/12/22 03:45:16;;;;;;;0.80;0.80;;;5.30;99.90;;;;;;5065534;28;20025;-31
2023/12/22 03:47:41;;;;;;;1.58;1.05;;;5.30;99.90;;;;;;5082400;28;20036;-34
2023/12/22 03:50:08;;;;;;;1.58;1.10;;;5.40;99.90;;;;;;5069697;28;20035;-34
2023/12/22 03:52:34;;;;;;;1.13;1.10;;;5.40;99.90;;;;;;5066136;28;20017;-31
2023/12/22 03:55:00;;;;;;;0.98;0.82;;;5.40;99.90;;;;;;5065099;28;20070;-29
2023/12/22 03:57:25;;;;;;;1.40;1.10;;;5.50;99.90;;;;;;5068954;28;20040;-34
2023/12/22 03:59:51;;;;;;;1.65;1.00;;;5.60;99.90;;;;;;5068903;28;20426;-31
2023/12/22 04:02:17;;;;;;;1.17;1.10;;;5.50;99.90;;;;;;5067810;28;20767;-33
2023/12/22 04:04:42;;;;;;;1.08;1.00;;;5.50;99.90;;;;;;5064620;28;20162;-32
2023/12/22 04:07:08;;;;;;;0.82;0.82;;;5.50;99.90;;;;;;5068724;28;20036;-32
2023/12/22 04:09:36;;;;;;;0.85;0.85;;;5.50;99.90;;;;;;5065154;28;20024;-31
2023/12/22 04:12:02;;;;;;;0.85;0.80;;;5.50;99.90;;;;;;5084355;28;20021;-30
2023/12/22 04:14:28;;;;;;;0.90;0.90;;;5.50;99.90;;;;;;5049931;28;20036;-31
2023/12/22 04:16:54;;;;;;;0.80;0.80;;;5.60;99.90;;;;;;5069410;28;20034;-32
2023/12/22 04:19:20;;;;;;;1.73;1.02;;;5.60;99.90;;;;;;5069867;28;20020;-33
2023/12/22 04:21:45;;;;;;;1.35;1.08;;;5.70;99.90;;;;;;5065942;28;20049;-31
2023/12/22 04:24:11;;;;;;;0.88;0.88;;;5.70;99.90;;;;;;5065076;28;20029;-33
2023/12/22 04:26:37;;;;;;;1.17;1.08;;;5.80;99.90;;;;;;5068613;28;20032;-34
2023/12/22 04:29:02;;;;;;;4.40;1.10;;;5.80;99.90;;;;;;5064921;28;20036;-34
2023/12/22 04:31:28;;;;;;;0.70;0.70;;;5.80;99.90;;;;;;5061199;28;20558;-37
2023/12/22 04:33:53;;;;;;;1.42;1.20;;;5.80;99.90;;;;;;5064956;28;20040;-35
2023/12/22 04:36:19;;;;;;;0.60;0.60;;;5.70;99.90;;;;;;5069394;28;20032;-33
2023/12/22 04:38:45;;;;;;;0.82;0.82;;;5.70;99.90;;;;;;5065596;28;20080;-36
2023/12/22 04:41:10;;;;;;;1.73;0.93;;;5.70;99.90;;;;;;5065025;28;20017;-34
2023/12/22 04:43:36;;;;;;;2.55;1.17;;;5.90;99.90;;;;;;5063757;28;20439;-35
2023/12/22 04:46:01;;;;;;;1.33;1.15;;;6.00;99.90;;;;;;5061833;28;20024;-33
2023/12/22 04:48:27;;;;;;;1.55;1.13;;;6.10;99.90;;;;;;5076274;28;20108;-32
2023/12/22 04:50:52;;;;;;;1.55;1.05;;;6.10;99.90;;;;;;5063936;28;20121;-33
2023/12/22 04:53:18;;;;;;;1.23;0.90;;;6.20;99.90;;;;;;5065842;28;20100;-34
2023/12/22 04:55:43;;;;;;;4.95;1.10;;;6.10;99.90;;;;;;5064740;28;20025;-36
2023/12/22 04:58:09;;;;;;;1.20;1.10;;;6.20;99.90;;;;;;5078966;28;20032;-33
2023/12/22 05:00:35;;;;;;;2.20;1.20;;;6.20;99.90;;;;;;5066107;28;20028;-35
2023/12/22 05:03:00;;;;;;;1.55;1.20;;;6.20;99.90;;;;;;5063739;28;20517;-34
2023/12/22 05:05:26;;;;;;;3.40;1.40;;;6.20;99.90;;;;;;5066799;28;20033;-33
2023/12/22 05:07:51;;;;;;;3.53;1.30;;;6.20;99.90;;;;;;5065567;28;20031;-32
2023/12/22 05:10:17;;;;;;;1.83;1.13;;;6.30;99.90;;;;;;5067382;28;20024;-32
2023/12/22 05:12:43;;;;;;;1.20;1.10;;;6.30;99.90;;;;;;5064019;28;20024;-37
2023/12/22 05:15:08;;;;;;;1.05;1.05;;;6.20;99.90;;;;;;5067951;28;20025;-32
2023/12/22 05:17:34;;;;;;;2.90;1.25;;;6.00;99.90;;;;;;5066538;28;20027;-32
2023/12/22 05:20:00;;;;;;;2.10;1.20;;;5.90;99.90;;;;;;5064308;28;20047;-33
2023/12/22 05:22:26;;;;;;;0.98;0.88;;;5.80;99.90;;;;;;5065084;28;20311;-36
2023/12/22 05:24:51;;;;;;;1.10;1.00;;;5.70;99.90;;;;;;5065480;28;20082;-34
2023/12/22 05:27:17;;;;;;;2.15;1.08;;;5.60;99.90;;;;;;5062158;28;20446;-34
2023/12/22 05:29:43;;;;;;;3.00;1.20;;;5.50;99.90;;;;;;5067717;28;20036;-33
2023/12/22 05:32:09;;;;;;;1.42;1.10;;;5.40;99.90;;;;;;5065197;28;20080;-32
2023/12/22 05:34:34;;;;;;;1.15;1.05;;;5.30;99.90;;;;;;5067909;28;20028;-29
2023/12/22 05:37:00;;;;;;;0.80;0.80;;;5.10;99.90;;;;;;5065271;28;20028;-33
2023/12/22 05:39:25;;;;;;;0.95;0.95;;;5.10;99.90;;;;;;5067545;28;20028;-34
2023/12/22 05:41:51;;;;;;;1.23;0.93;;;5.00;99.90;;;;;;5066090;28;20568;-39
2023/12/22 05:44:17;;;;;;;1.42;1.05;;;5.00;99.90;;;;;;5066140;28;20024;-34
2023/12/22 05:46:43;;;;;;;1.00;0.85;;;4.90;99.90;;;;;;5073746;28;20691;-41
2023/12/22 05:49:08;;;;;;;1.10;0.90;;;4.90;99.90;;;;;;5060371;28;20396;-36
2023/12/22 05:51:41;;;;;;;1.52;0.70;;;4.80;99.90;;;;;;5064399;28;20399;-41
2023/12/22 05:54:11;;;;;;;1.35;0.75;;;4.90;99.90;;;;;;5066600;28;20025;-40
2023/12/22 05:56:37;;;;;;;1.23;1.15;;;4.90;99.90;;;;;;5062577;28;20021;-40
2023/12/22 05:59:03;;;;;;;1.10;1.10;;;4.90;99.90;;;;;;5078512;28;20054;-40
2023/12/22 06:01:29;;;;;;;0.80;0.80;;;4.90;99.90;;;;;;5064290;28;20037;-38
2023/12/22 06:03:54;;;;;;;1.58;1.10;;;5.00;99.90;;;;;;5061905;28;20029;-36
2023/12/22 06:06:21;;;;;;;1.88;0.82;;;5.10;99.90;;;;;;5064257;28;20687;-40
2023/12/22 06:08:46;;;;;;;1.23;1.15;;;5.10;99.90;;;;;;5076916;28;20024;-39
2023/12/22 06:11:12;;;;;;;0.70;0.70;;;5.20;99.90;;;;;;5047954;28;20170;-41
2023/12/22 06:13:38;;;;;;;1.17;1.02;;;5.30;99.90;;;;;;5056069;28;20025;-32
2023/12/22 06:16:04;;;;;;;2.08;1.30;;;5.30;99.90;;;;;;5066081;28;20468;-41
2023/12/22 06:18:30;;;;;;;1.92;1.20;;;5.40;99.90;;;;;;5066210;28;20020;-40
2023/12/22 06:20:56;;;;;;;2.13;1.35;;;5.50;99.90;;;;;;5064227;28;20036;-40
2023/12/22 06:23:21;;;;;;;1.10;1.00;;;5.40;99.90;;;;;;5064436;28;20454;-41
2023/12/22 06:25:48;;;;;;;3.45;1.40;;;5.50;99.90;;;;;;5065380;28;20028;-41
2023/12/22 06:28:16;;;;;;;1.08;1.00;;;5.60;99.90;;;;;;5060570;28;20600;-39
2023/12/22 06:30:42;;;;;;;;;;;5.60;99.90;;;;;;5064643;28;20036;-36
2023/12/22 06:33:08;;;;;;;0.85;0.85;;;5.70;99.90;;;;;;5060208;28;20398;-34
2023/12/22 06:35:34;;;;;;;2.20;1.35;;;5.80;99.90;;;;;;5065623;28;20020;-39
2023/12/22 06:38:03;;;;;;;3.83;0.90;;;5.70;99.90;;;;;;5064228;28;20173;-40
2023/12/22 06:40:29;;;;;;;3.00;1.17;;;5.80;99.90;;;;;;5064978;28;20033;-40
2023/12/22 06:42:55;;;;;;;3.25;1.35;;;5.90;99.90;;;;;;5064518;28;20498;-34
2023/12/22 06:45:20;;;;;;;3.60;2.05;;;5.90;99.90;;;;;;5061723;28;20024;-31
2023/12/22 06:47:46;;;;;;;1.58;1.35;;;5.90;99.90;;;;;;5062987;28;20402;-34
2023/12/22 06:50:11;;;;;;;1.83;1.40;;;5.90;99.90;;;;;;5060858;28;20048;-39
2023/12/22 06:52:37;;;;;;;5.35;1.80;;;5.90;99.90;;;;;;5062777;28;20107;-36
2023/12/22 06:55:03;;;;;;;1.08;1.08;;;5.70;99.90;;;;;;5065301;28;20490;-39
2023/12/22 06:57:29;;;;;;;2.30;1.40;;;5.60;99.90;;;;;;5065357;28;20025;-38
2023/12/22 06:59:55;;;;;;;3.40;1.65;;;5.60;99.90;;;;;;5061697;28;20040;-38
2023/12/22 07:02:20;;;;;;;2.80;1.23;;;5.60;99.90;;;;;;5062850;28;20037;-39
2023/12/22 07:05:06;;;;;;;1.65;1.17;;;5.50;99.90;;;;;;5064642;28;20075;-38
2023/12/22 07:07:32;;;;;;;1.63;1.00;;;5.60;99.90;;;;;;5061493;28;20059;-37
2023/12/22 07:09:57;;;;;;;1.80;1.08;;;5.60;99.90;;;;;;5062602;28;20574;-34
2023/12/22 07:12:23;;;;;;;0.90;0.90;;;5.50;99.90;;;;;;5066616;28;20028;-39
2023/12/22 07:14:48;;;;;;;2.78;1.10;;;5.50;99.90;;;;;;5064107;28;20407;-37
2023/12/22 07:17:14;;;;;;;2.05;1.17;;;5.60;99.90;;;;;;5063083;28;20117;-37
2023/12/22 07:19:40;;;;;;;2.22;1.40;;;5.60;99.90;;;;;;5063949;28;20031;-34
2023/12/22 07:22:05;;;;;;;2.60;1.38;;;5.70;99.90;;;;;;5064310;28;20105;-37
2023/12/22 07:24:31;;;;;;;2.75;1.50;;;5.80;99.90;;;;;;5061913;28;20090;-38
2023/12/22 07:26:56;;;;;;;6.13;1.60;;;5.70;99.90;;;;;;5063659;28;20029;-36
2023/12/22 07:29:22;;;;;;;1.33;1.23;;;5.80;99.90;;;;;;5064996;28;20041;-38
2023/12/22 07:31:47;;;;;;;1.10;1.00;;;5.80;99.90;;;;;;5063146;28;20036;-38
2023/12/22 07:34:13;;;;;;;1.58;1.15;;;5.80;99.90;;;;;;5061318;28;20038;-39
2023/12/22 07:36:39;;;;;;;4.63;1.25;;;5.80;99.90;;;;;;5063085;28;20183;-37
2023/12/22 07:39:06;;;;;;;3.10;1.10;;;5.90;99.90;;;;;;5062116;28;20025;-37
2023/12/22 07:41:32;;;;;;;1.50;1.30;;;5.90;99.90;;;;;;5063591;28;20028;-39
2023/12/22 07:43:57;;;;;;;5.03;1.20;;;5.90;99.90;;;;;;5057299;28;20362;-36
2023/12/22 07:46:23;;;;;;;6.88;1.40;;;5.90;99.90;;;;;;5062009;28;20031;-39
2023/12/22 07:48:50;;;;;;;1.67;1.00;;;5.80;99.90;;;;;;5064603;28;20669;-39
2023/12/22 07:51:16;;;;;;;1.40;1.00;;;5.80;99.90;;;;;;5064999;28;20290;-38
2023/12/22 07:53:42;;;;;;;1.45;0.95;;;5.90;99.90;;;;;;5064677;28;20027;-33
2023/12/22 07:56:08;;;;;;;3.58;1.60;;;5.90;99.90;;;;;;5064311;28;20487;-39
2023/12/22 07:58:33;;;;;;;1.80;1.38;;;5.80;99.90;;;;;;5063394;28;20017;-36
2023/12/22 08:00:59;;;;;;;5.57;1.17;;;5.80;99.90;;;;;;5063200;28;20147;-39
2023/12/22 08:03:24;;;;;;;0.90;0.90;;;5.70;99.90;;;;;;5062737;28;20029;-38
2023/12/22 08:05:50;;;;;;;4.35;1.10;;;5.70;99.90;;;;;;5063957;28;20429;-39
2023/12/22 08:08:16;;;;;;;3.20;1.25;;;5.70;99.90;;;;;;5064529;28;20372;-38
2023/12/22 08:10:41;;;;;;;2.13;1.20;;;5.70;99.90;;;;;;5069692;28;20089;-37
2023/12/22 08:13:07;;;;;;;3.35;1.40;;;5.80;99.90;;;;;;5065167;28;20033;-37
2023/12/22 08:15:32;;;;;;;1.98;0.82;;;5.80;99.90;;;;;;5064980;28;20024;-38
2023/12/22 08:17:58;;;;;;;2.60;1.00;;;5.80;99.90;;;;;;5067315;28;20035;-39
2023/12/22 08:20:24;;;;;;;4.75;1.23;;;5.80;99.90;;;;;;5068389;28;20360;-39
2023/12/22 08:22:51;;;;;;;1.08;0.98;;;5.80;99.90;;;;;;5068492;28;20412;-39
2023/12/22 08:25:20;;;;;;;1.55;1.00;;;5.70;99.90;;;;;;5064236;28;20029;-39
2023/12/22 08:27:46;;;;;;;2.08;1.33;;;5.70;99.90;;;;;;5066937;28;20040;-37
2023/12/22 08:30:12;;;;;;;0.88;0.88;;;5.80;99.90;;;;;;5065946;28;20379;-37
2023/12/22 08:32:38;;;;;;;1.23;1.10;;;5.80;99.90;;;;;;5068513;28;20029;-39
2023/12/22 08:35:04;;;;;;;0.93;0.93;;;5.70;99.90;;;;;;5066679;28;20497;-38
2023/12/22 08:37:30;;;;;;;1.20;0.90;;;5.80;99.90;;;;;;5064886;28;20082;-37
2023/12/22 08:39:57;;;;;;;3.60;1.80;;;5.80;99.90;;;;;;5066387;28;20060;-38
2023/12/22 08:42:23;;;;;;;1.05;0.95;;;5.80;99.90;;;;;;5065002;28;20031;-39
2023/12/22 08:44:49;;;;;;;1.75;0.82;;;5.80;99.90;;;;;;5067134;28;20040;-39
2023/12/22 08:47:15;;;;;;;5.00;1.23;;;5.70;99.90;;;;;;5066719;28;20032;-36
2023/12/22 08:49:41;;;;;;;2.83;0.90;;;5.70;99.90;;;;;;5064356;28;20048;-34
2023/12/22 08:52:07;;;;;;;2.13;1.00;;;5.70;99.90;;;;;;5068917;28;20460;-38
2023/12/22 08:54:34;;;;;;;0.95;0.95;;;5.70;99.90;;;;;;5062505;28;20091;-32
2023/12/22 08:57:00;;;;;;;1.70;1.30;;;5.70;99.90;;;;;;5063810;28;20570;-39
2023/12/22 08:59:26;;;;;;;1.45;1.35;;;5.80;99.90;;;;;;5058767;28;20057;-31
2023/12/22 09:01:51;;;;;;;1.55;1.00;;;5.80;99.90;;;;;;5065144;28;20083;-33
2023/12/22 09:04:17;;;;;;;1.75;0.95;;;5.80;99.90;;;;;;5068018;28;20081;-35
2023/12/22 09:06:43;;;;;;;2.83;0.90;;;5.80;99.90;;;;;;5066083;28;20037;-34
2023/12/22 09:09:09;;;;;;;2.53;1.55;;;5.80;99.90;;;;;;5064561;28;20115;-34
2023/12/22 09:11:36;;;;;;;3.40;1.23;;;5.80;99.90;;;;;;5056255;28;20140;-35
2023/12/22 09:14:08;;;;;;;1.63;1.27;;;5.80;99.90;;;;;;5068250;28;20025;-31
2023/12/22 09:16:34;;;;;;;2.60;1.27;;;5.90;99.90;;;;;;5061124;28;20021;-37
2023/12/22 09:18:59;;;;;;;0.88;0.73;;;5.90;99.90;;;;;;5065327;28;20043;-33
2023/12/22 09:21:26;;;;;;;2.60;1.13;;;5.90;99.90;;;;;;5065253;28;20051;-35
2023/12/22 09:23:51;;;;;;;2.63;1.17;;;6.00;99.90;;;;;;5066729;28;20040;-36
2023/12/22 09:26:17;;;;;;;2.08;1.13;;;6.00;99.90;;;;;;5060042;28;20074;-32
2023/12/22 09:28:44;;;;;;;2.05;1.10;;;5.90;99.90;;;;;;5062214;28;20464;-35
2023/12/22 09:31:10;;;;;;;2.42;1.20;;;5.80;99.90;;;;;;5066865;28;20051;-34
2023/12/22 09:33:36;;;;;;;2.22;0.90;;;5.70;99.90;;;;;;5063518;28;20021;-34
2023/12/22 09:36:02;;;;;;;0.77;0.77;;;5.50;99.90;;;;;;5063536;28;20089;-35
2023/12/22 09:38:29;;;;;;;1.95;1.25;;;5.30;99.90;;;;;;5062257;28;20095;-35
2023/12/22 09:40:56;;;;;;;1.55;1.20;;;5.20;99.90;;;;;;5060602;28;20060;-35
2023/12/22 09:43:22;;;;;;;2.60;0.70;;;5.10;99.90;;;;;;5066072;28;20031;-34
2023/12/22 09:45:49;;;;;;;1.10;1.00;;;5.00;99.90;;;;;;5062526;28;20013;-36
2023/12/22 09:48:17;;;;;;;1.00;1.00;;;5.00;99.90;;;;;;5063286;28;20058;-34
2023/12/22 09:50:46;;;;;;;0.95;0.95;;;4.90;99.90;;;;;;5065403;28;20119;-32
2023/12/22 09:53:13;;;;;;;0.70;0.70;;;4.90;99.90;;;;;;5066691;28;20546;-33
2023/12/22 09:55:45;;;;;;;0.70;0.70;;;5.00;99.90;;;;;;5064920;28;20017;-33
2023/12/22 09:58:13;;;;;;;0.70;0.70;;;4.90;99.90;;;;;;5064901;28;20430;-32
2023/12/22 10:00:40;;;;;;;1.63;0.68;;;4.90;99.90;;;;;;5067306;28;20059;-34
2023/12/22 10:03:11;;;;;;;2.17;0.65;;;4.90;99.90;;;;;;5061858;28;20024;-32
2023/12/22 10:05:37;;;;;;;1.13;0.73;;;4.90;99.90;;;;;;5065486;28;20050;-35
2023/12/22 10:08:04;;;;;;;1.20;1.20;;;4.90;99.90;;;;;;5064762;28;20021;-31
2023/12/22 10:10:30;;;;;;;0.75;0.75;;;4.90;99.90;;;;;;5060979;28;20036;-34
2023/12/22 10:12:56;;;;;;;2.05;1.20;;;4.90;99.90;;;;;;5060449;28;20020;-33
2023/12/22 10:15:26;;;;;;;1.15;1.10;;;4.90;99.90;;;;;;5065550;28;20032;-33
2023/12/22 10:17:54;;;;;;;2.38;1.20;;;4.90;99.90;;;;;;5065376;28;20021;-33
2023/12/22 10:20:20;;;;;;;5.60;1.00;;;4.90;99.90;;;;;;5060214;28;20041;-35
2023/12/22 10:22:48;;;;;;;0.70;0.70;;;4.90;99.90;;;;;;5063071;28;20098;-37
2023/12/22 10:25:18;;;;;;;1.85;1.13;;;5.00;99.90;;;;;;5063102;28;20025;-35
2023/12/22 10:27:44;;;;;;;1.42;1.20;;;5.00;99.90;;;;;;5065574;28;20493;-33
2023/12/22 10:30:10;;;;;;;2.17;1.42;;;5.00;99.90;;;;;;5063587;28;20039;-37
2023/12/22 10:32:43;;;;;;;2.50;1.52;;;5.00;99.90;;;;;;5059378;28;20260;-32
2023/12/22 10:35:10;;;;;;;0.88;0.88;;;5.10;99.90;;;;;;5062158;28;20032;-35
2023/12/22 10:37:36;;;;;;;2.55;1.13;;;5.10;99.90;;;;;;5047067;28;20056;-34
2023/12/22 10:40:05;;;;;;;2.28;1.20;;;5.20;99.90;;;;;;5047577;28;20035;-33
2023/12/22 10:42:32;;;;;;;1.83;1.10;;;5.30;99.90;;;;;;5064136;28;20730;-35
2023/12/22 10:44:58;;;;;;;2.83;1.00;;;5.40;99.90;;;;;;5063764;28;20029;-36
2023/12/22 10:47:24;;;;;;;1.50;1.00;;;5.50;99.90;;;;;;5062352;28;20390;-31
2023/12/22 10:49:49;;;;;;;3.70;1.42;;;5.50;99.90;;;;;;5063775;28;20074;-33
2023/12/22 10:52:23;;;;;;;1.75;1.00;;;5.70;99.90;;;;;;5059906;28;20098;-33
2023/12/22 10:54:49;;;;;;;3.25;1.83;;;5.70;99.90;;;;;;5076317;28;20025;-31
2023/12/22 10:57:22;;;;;;;1.05;0.98;;;5.80;99.90;;;;;;5055273;28;20069;-34
2023/12/22 11:00:03;;;;;;;1.65;1.13;;;5.90;99.90;;;;;;5048134;28;20037;-33
2023/12/22 11:02:30;;;;;;;4.47;1.30;;;5.90;99.90;;;;;;5062580;28;20039;-32
2023/12/22 11:04:56;;;;;;;2.25;1.25;;;5.90;99.90;;;;;;5064513;28;20056;-34
2023/12/22 11:07:24;;;;;;;2.67;1.25;;;6.00;99.90;;;;;;5064433;28;20121;-35
2023/12/22 11:09:56;;;;;;;1.85;1.38;;;6.00;99.90;;;;;;5062483;28;20032;-35
2023/12/22 11:12:38;;;;;;;3.55;1.23;;;6.00;99.90;;;;;;5062999;28;20035;-32
2023/12/22 11:15:08;;;;;;;1.83;1.00;;;6.00;99.90;;;;;;5061716;28;20024;-35
2023/12/22 11:17:40;;;;;;;1.52;1.30;;;5.90;99.90;;;;;;5059991;28;20412;-35
2023/12/22 11:20:08;;;;;;;1.58;1.40;;;5.90;99.90;;;;;;5062919;28;20384;-32
2023/12/22 11:22:35;;;;;;;;;;;5.90;99.90;;;;;;5063477;28;20104;-31
2023/12/22 11:25:02;;;;;;;1.88;1.40;;;5.90;99.90;;;;;;5064826;28;19919;-32
2023/12/22 11:27:29;;;;;;;1.45;1.35;;;5.90;99.90;;;;;;5060920;28;20074;-30
2023/12/22 11:29:56;;;;;;;1.50;1.17;;;5.90;99.90;;;;;;5065610;28;20043;-35
2023/12/22 11:32:22;;;;;;;0.80;0.80;;;5.90;99.90;;;;;;5062565;28;20025;-34
2023/12/22 11:34:48;;;;;;;0.70;0.70;;;5.80;99.90;;;;;;5066298;28;20101;-32
2023/12/22 11:37:15;;;;;;;1.00;0.95;;;5.80;99.90;;;;;;5064660;28;20032;-34
2023/12/22 11:39:42;;;;;;;2.75;1.10;;;5.80;99.90;;;;;;5062782;28;20510;-33
2023/12/22 11:42:12;;;;;;;1.00;1.00;;;5.90;99.90;;;;;;5065900;28;20559;-32
2023/12/22 11:44:38;;;;;;;3.22;1.52;;;5.90;99.90;;;;;;5067045;28;20111;-31
2023/12/22 11:47:06;;;;;;;1.35;1.15;;;5.90;99.90;;;;;;5067814;28;20033;-34
2023/12/22 11:49:41;;;;;;;1.95;1.10;;;5.90;99.90;;;;;;5070091;28;20483;-33
2023/12/22 11:52:18;;;;;;;2.55;1.20;;;5.90;99.90;;;;;;5068729;28;20029;-31
2023/12/22 11:54:51;;;;;;;1.02;1.02;;;5.90;99.90;;;;;;5065439;28;20024;-31
2023/12/22 11:57:33;;;;;;;0.82;0.82;;;6.00;99.90;;;;;;5067633;28;20404;-31
2023/12/22 12:00:19;;;;;;;3.50;1.00;;;6.00;99.90;;;;;;5065129;28;20041;-31
2023/12/22 12:02:54;;;;;;;5.20;1.40;;;6.00;99.90;;;;;;5059079;28;20408;-31
2023/12/22 12:05:20;;;;;;;1.10;1.10;;;5.90;99.90;;;;;;5063543;28;20396;-31
2023/12/22 12:07:49;;;;;;;0.90;0.90;;;6.00;99.90;;;;;;5070492;28;20040;-35
2023/12/22 12:10:32;;;;;;;3.53;1.17;;;5.90;99.90;;;;;;5067845;28;20032;-32
2023/12/22 12:13:08;;;;;;;1.55;1.15;;;5.90;99.90;;;;;;5070453;28;20033;-34
2023/12/22 12:15:35;;;;;;;2.72;1.02;;;6.00;99.90;;;;;;5066137;28;20020;-29
2023/12/22 12:18:02;;;;;;;2.60;1.08;;;6.00;99.90;;;;;;5067233;28;20503;-29
2023/12/22 12:20:28;;;;;;;3.80;1.23;;;6.00;99.90;;;;;;5068559;28;20025;-32
2023/12/22 12:22:55;;;;;;;1.00;0.90;;;6.00;99.90;;;;;;5068841;28;20075;-33
2023/12/22 12:25:30;;;;;;;1.00;1.00;;;6.00;99.90;;;;;;5067003;28;20032;-28
2023/12/22 12:28:07;;;;;;;1.35;1.17;;;6.10;99.90;;;;;;5067788;28;20040;-31
2023/12/22 12:30:33;;;;;;;1.00;1.00;;;6.10;99.90;;;;;;5080968;28;20078;-33
2023/12/22 12:33:06;;;;;;;1.08;0.98;;;6.00;99.90;;;;;;5062316;28;20041;-31
2023/12/22 12:35:33;;;;;;;2.95;1.88;;;6.10;99.90;;;;;;5071132;28;20020;-29
2023/12/22 12:38:03;;;;;;;1.73;1.20;;;6.10;99.90;;;;;;5068368;28;20024;-29
2023/12/22 12:40:30;;;;;;;2.83;1.20;;;6.10;99.90;;;;;;5066104;28;20123;-37
2023/12/22 12:42:56;;;;;;;1.33;1.05;;;6.10;99.90;;;;;;5065749;28;20024;-40
2023/12/22 12:45:26;;;;;;;1.08;1.08;;;6.10;99.90;;;;;;5066275;28;20434;-33
2023/12/22 12:48:02;;;;;;;1.77;1.05;;;6.10;99.90;;;;;;5049005;28;20123;-40
2023/12/22 12:50:31;;;;;;;1.92;1.45;;;6.00;99.90;;;;;;5066292;28;20039;-39
2023/12/22 12:52:57;;;;;;;2.20;1.17;;;6.00;99.90;;;;;;5066652;28;20071;-40
2023/12/22 12:55:24;;;;;;;0.90;0.90;;;6.00;99.90;;;;;;5068542;28;20111;-36